Live aus Altenrhein
LIVE
LSZR 281350Z 27004KT 240V340 CAVOK 17/09 Q1023 NOSIG RMK K

People´s Info Center:

Öffnungszeiten Mo-Fr, 8-18 Uhr

 

info@peoples.ch

 
Aus Österreich:

T: +43 (0)5572 203 610

 

Aus CH / LI / DE:

T: +41 (0)71 858 51 60

 

Webcam Flughafen St.Gallen-Altenrhein

Live-Bilder und Zeitraffer LSZR / ACH.

 

Live aus Altenrhein
LIVE
LSZR 281350Z 27004KT 240V340 CAVOK 17/09 Q1023 NOSIG RMK K
Zeitraffer heute
2017-03-28 00:14:53
LSZR 272150Z AUTO 22003KT CAVOK 06/04 Q1022
Zeitraffer gestern
2017-03-27 00:14:58
LSZR 262150Z AUTO VRB02KT CAVOK 06/04 Q1022
Zeitraffer vor 3 Tagen
2017-03-25 00:14:58
LSZR 242250Z AUTO 28004KT 8000 OVC016 08/06 Q1025